createdAt,value
2022-12-11T00:01:13.178Z,26.00
2022-12-11T00:03:39.766Z,28.67
2022-12-11T00:06:12.399Z,28.40
2022-12-11T00:08:39.660Z,31.53
2022-12-11T00:11:08.872Z,34.05
2022-12-11T00:13:35.629Z,28.00
2022-12-11T00:16:02.217Z,27.02
2022-12-11T00:18:28.680Z,31.73
2022-12-11T00:20:55.209Z,29.20
2022-12-11T00:23:21.670Z,29.10
2022-12-11T00:25:48.197Z,34.05
2022-12-11T00:28:18.832Z,27.92
2022-12-11T00:30:46.555Z,28.13
2022-12-11T00:33:14.497Z,29.97
2022-12-11T00:35:43.749Z,28.98
2022-12-11T00:38:15.924Z,32.08
2022-12-11T00:40:42.800Z,29.63
2022-12-11T00:43:09.367Z,27.73
2022-12-11T00:45:40.950Z,27.77
2022-12-11T00:48:08.932Z,30.33
2022-12-11T00:50:36.275Z,34.47
2022-12-11T00:53:05.211Z,34.00
2022-12-11T00:55:32.313Z,34.67
2022-12-11T00:57:58.776Z,32.97
2022-12-11T01:00:25.250Z,38.30
2022-12-11T01:02:51.745Z,40.75
2022-12-11T01:05:18.362Z,33.30
2022-12-11T01:07:44.906Z,36.88
2022-12-11T01:10:25.418Z,37.90
2022-12-11T01:13:06.565Z,36.05
2022-12-11T01:15:42.226Z,36.97
2022-12-11T01:18:10.187Z,36.17
2022-12-11T01:20:39.901Z,40.40
2022-12-11T01:23:06.701Z,37.57
2022-12-11T01:25:35.647Z,36.47
2022-12-11T01:28:02.087Z,37.17
2022-12-11T01:30:28.653Z,39.42
2022-12-11T01:32:55.080Z,39.13
2022-12-11T01:35:21.982Z,39.23
2022-12-11T01:37:49.053Z,34.55
2022-12-11T01:40:18.182Z,37.90
2022-12-11T01:42:44.615Z,35.53
2022-12-11T01:45:29.203Z,35.08
2022-12-11T01:48:18.726Z,34.67
2022-12-11T01:51:05.738Z,34.08
2022-12-11T01:53:39.043Z,34.92
2022-12-11T01:56:06.689Z,35.70
2022-12-11T01:58:44.122Z,32.97
2022-12-11T02:01:16.976Z,34.23
2022-12-11T02:03:43.748Z,34.20
2022-12-11T02:06:36.979Z,34.75
2022-12-11T02:09:07.355Z,36.05
2022-12-11T02:12:03.683Z,34.25
2022-12-11T02:14:44.663Z,33.83
2022-12-11T02:17:23.557Z,34.80
2022-12-11T02:19:59.898Z,33.35
2022-12-11T02:22:30.398Z,33.15
2022-12-11T02:25:20.836Z,35.63
2022-12-11T02:28:31.253Z,34.87
2022-12-11T02:31:04.342Z,35.53
2022-12-11T02:33:44.211Z,34.25
2022-12-11T02:36:12.036Z,34.22
2022-12-11T02:38:41.745Z,31.08
2022-12-11T02:41:11.429Z,35.67
2022-12-11T02:43:39.305Z,29.65
2022-12-11T02:46:07.986Z,32.63
2022-12-11T02:48:36.956Z,31.77
2022-12-11T02:51:06.163Z,32.35
2022-12-11T02:53:41.328Z,33.20
2022-12-11T02:56:34.437Z,31.15
2022-12-11T02:59:06.715Z,35.03
2022-12-11T03:01:35.976Z,36.53
2022-12-11T03:04:02.612Z,33.45
2022-12-11T03:06:36.841Z,35.27
2022-12-11T03:09:05.384Z,39.45
2022-12-11T03:11:31.855Z,36.95
2022-12-11T03:14:02.727Z,38.58
2022-12-11T03:16:37.028Z,42.75
2022-12-11T03:19:41.303Z,36.47
2022-12-11T03:22:12.802Z,37.58
2022-12-11T03:24:48.790Z,37.60
2022-12-11T03:27:25.925Z,38.83
2022-12-11T03:30:02.505Z,40.85
2022-12-11T03:32:35.627Z,36.77
2022-12-11T03:35:31.781Z,37.63
2022-12-11T03:38:03.035Z,35.75
2022-12-11T03:40:33.296Z,35.28
2022-12-11T03:43:00.676Z,33.67
2022-12-11T03:45:30.259Z,35.73
2022-12-11T03:47:59.888Z,40.65
2022-12-11T03:50:29.767Z,35.75
2022-12-11T03:52:57.556Z,36.17
2022-12-11T03:55:24.847Z,37.35
2022-12-11T03:57:51.335Z,36.60
2022-12-11T04:00:20.263Z,38.97
2022-12-11T04:03:11.356Z,38.25
2022-12-11T04:05:41.263Z,35.17
2022-12-11T04:08:07.826Z,34.55
2022-12-11T04:10:36.935Z,35.33
2022-12-11T04:13:03.459Z,36.22
2022-12-11T04:15:29.889Z,37.28
2022-12-11T04:18:14.984Z,40.47
2022-12-11T04:20:59.695Z,40.47
2022-12-11T04:23:45.014Z,35.13
2022-12-11T04:26:14.813Z,39.25
2022-12-11T04:28:42.671Z,39.50
2022-12-11T04:31:19.225Z,38.45
2022-12-11T04:33:46.225Z,36.08
2022-12-11T04:36:13.286Z,35.30
2022-12-11T04:38:40.120Z,36.75
2022-12-11T04:41:10.767Z,34.97
2022-12-11T04:43:37.604Z,33.72
2022-12-11T04:46:11.623Z,38.65
2022-12-11T04:48:39.024Z,38.73
2022-12-11T04:51:06.125Z,49.97
2022-12-11T04:53:32.916Z,40.67
2022-12-11T04:55:59.385Z,38.10
2022-12-11T04:58:26.192Z,40.13
2022-12-11T05:00:53.249Z,39.33
2022-12-11T05:03:20.595Z,42.22
2022-12-11T05:05:52.090Z,43.88
2022-12-11T05:08:19.563Z,39.88
2022-12-11T05:10:55.361Z,39.38
2022-12-11T05:13:21.865Z,44.60
2022-12-11T05:15:48.490Z,44.58
2022-12-11T05:18:15.075Z,39.97
2022-12-11T05:20:41.470Z,42.88
2022-12-11T05:23:07.898Z,42.63
2022-12-11T05:25:34.294Z,44.87
2022-12-11T05:28:00.706Z,47.78
2022-12-11T05:30:27.116Z,44.78
2022-12-11T05:32:53.502Z,44.45
2022-12-11T05:35:20.011Z,42.80
2022-12-11T05:37:46.494Z,44.97
2022-12-11T05:40:12.988Z,40.22
2022-12-11T05:42:39.404Z,40.15
2022-12-11T05:45:06.428Z,43.90
2022-12-11T05:47:32.911Z,39.80
2022-12-11T05:49:59.310Z,42.57
2022-12-11T05:52:25.758Z,45.88
2022-12-11T05:54:52.213Z,39.90
2022-12-11T05:57:18.606Z,43.28
2022-12-11T05:59:45.277Z,42.95
2022-12-11T06:02:11.696Z,42.53
2022-12-11T06:04:38.154Z,37.92
2022-12-11T06:07:04.588Z,38.20
2022-12-11T06:09:30.981Z,44.63
2022-12-11T06:11:57.351Z,42.42
2022-12-11T06:14:23.687Z,41.23
2022-12-11T06:16:50.381Z,41.15
2022-12-11T06:19:20.224Z,43.38
2022-12-11T06:21:48.817Z,41.78
2022-12-11T06:24:15.378Z,43.55
2022-12-11T06:26:41.833Z,40.37
2022-12-11T06:29:12.570Z,45.58
2022-12-11T06:31:39.686Z,42.00
2022-12-11T06:34:06.143Z,45.97
2022-12-11T06:36:32.599Z,42.25
2022-12-11T06:38:59.031Z,48.80
2022-12-11T06:41:25.838Z,46.97
2022-12-11T06:43:52.368Z,49.10
2022-12-11T06:46:19.936Z,46.30
2022-12-11T06:48:47.495Z,41.60
2022-12-11T06:51:20.021Z,47.40
2022-12-11T06:53:54.723Z,48.42
2022-12-11T06:56:21.945Z,60.97
2022-12-11T06:58:48.503Z,63.97
2022-12-11T07:01:23.906Z,40.55
2022-12-11T07:03:56.302Z,47.27
2022-12-11T07:06:23.822Z,61.78
2022-12-11T07:08:50.658Z,45.85
2022-12-11T07:11:18.967Z,52.10
2022-12-11T07:13:46.178Z,48.47
2022-12-11T07:16:15.661Z,44.23
2022-12-11T07:18:47.063Z,43.75
2022-12-11T07:21:14.469Z,43.40
2022-12-11T07:23:41.525Z,42.15
2022-12-11T07:26:10.610Z,42.88
2022-12-11T07:28:37.094Z,41.03
2022-12-11T07:31:07.975Z,39.85
2022-12-11T07:33:34.831Z,40.83
2022-12-11T07:36:03.335Z,41.55
2022-12-11T07:38:30.050Z,40.67
2022-12-11T07:40:56.827Z,46.87
2022-12-11T07:43:23.258Z,42.80
2022-12-11T07:45:49.657Z,43.80
2022-12-11T07:48:16.179Z,41.70
2022-12-11T07:50:42.600Z,44.00
2022-12-11T07:53:08.994Z,46.90
2022-12-11T07:55:35.413Z,41.33
2022-12-11T07:58:01.925Z,44.50
2022-12-11T08:00:28.362Z,43.55
2022-12-11T08:02:54.863Z,43.80
2022-12-11T08:05:21.498Z,39.87
2022-12-11T08:07:47.960Z,40.22
2022-12-11T08:10:14.393Z,42.22
2022-12-11T08:12:40.764Z,39.28
2022-12-11T08:15:07.874Z,42.33
2022-12-11T08:17:39.871Z,43.63
2022-12-11T08:20:06.974Z,40.28
2022-12-11T08:22:34.070Z,46.42
2022-12-11T08:25:00.500Z,47.70
2022-12-11T08:27:26.929Z,42.03
2022-12-11T08:29:53.306Z,44.93
2022-12-11T08:32:19.806Z,40.53
2022-12-11T08:34:46.325Z,45.13
2022-12-11T08:37:13.605Z,43.55
2022-12-11T08:39:40.064Z,41.85
2022-12-11T08:42:07.127Z,46.07
2022-12-11T08:44:33.542Z,39.13
2022-12-11T08:46:59.900Z,35.88
2022-12-11T08:49:28.672Z,40.88
2022-12-11T08:51:59.231Z,39.10
2022-12-11T08:54:25.731Z,35.67
2022-12-11T08:56:56.408Z,38.53
2022-12-11T08:59:25.554Z,39.92
2022-12-11T09:01:52.291Z,41.28
2022-12-11T09:04:19.304Z,48.38
2022-12-11T09:06:45.798Z,42.77
2022-12-11T09:09:12.735Z,38.08
2022-12-11T09:11:39.218Z,33.95
2022-12-11T09:14:08.013Z,42.72
2022-12-11T09:16:40.471Z,39.25
2022-12-11T09:19:10.975Z,37.40
2022-12-11T09:21:37.596Z,35.85
2022-12-11T09:24:04.409Z,40.20
2022-12-11T09:26:30.876Z,34.63
2022-12-11T09:28:57.964Z,36.70
2022-12-11T09:31:30.542Z,35.90
2022-12-11T09:33:59.518Z,41.55
2022-12-11T09:36:26.451Z,35.70
2022-12-11T09:38:53.576Z,41.33
2022-12-11T09:41:29.488Z,39.72
2022-12-11T09:44:06.799Z,38.83
2022-12-11T09:46:35.710Z,36.40
2022-12-11T09:49:04.656Z,37.08
2022-12-11T09:51:39.158Z,47.63
2022-12-11T09:54:05.980Z,38.85
2022-12-11T09:56:53.640Z,42.03
2022-12-11T09:59:37.421Z,41.22
2022-12-11T10:02:22.316Z,34.30
2022-12-11T10:05:13.710Z,33.88
2022-12-11T10:07:56.976Z,31.15
2022-12-11T10:10:29.622Z,33.27
2022-12-11T10:13:02.246Z,28.08
2022-12-11T10:15:31.606Z,32.45
2022-12-11T10:18:04.946Z,34.75
2022-12-11T10:20:36.515Z,29.48
2022-12-11T10:23:06.260Z,32.87
2022-12-11T10:25:36.682Z,34.40
2022-12-11T10:28:14.584Z,34.88
2022-12-11T10:31:02.577Z,37.13
2022-12-11T10:34:00.511Z,37.53
2022-12-11T10:36:38.716Z,34.30
2022-12-11T10:39:16.807Z,35.08
2022-12-11T10:41:46.075Z,42.15
2022-12-11T10:44:17.617Z,53.60
2022-12-11T10:46:45.534Z,35.55
2022-12-11T10:49:23.987Z,32.50
2022-12-11T10:51:51.941Z,31.02
2022-12-11T10:54:32.443Z,28.33
2022-12-11T10:57:02.211Z,26.17
2022-12-11T10:59:34.159Z,27.08
2022-12-11T11:02:01.229Z,23.73
2022-12-11T11:04:36.703Z,24.88
2022-12-11T11:07:13.470Z,29.38
2022-12-11T11:09:40.627Z,27.40
2022-12-11T11:12:22.439Z,28.02
2022-12-11T11:15:02.965Z,24.70
2022-12-11T11:17:35.178Z,36.00
2022-12-11T11:20:12.031Z,33.40
2022-12-11T11:22:46.390Z,25.90
2022-12-11T11:25:25.151Z,24.67
2022-12-11T11:27:55.996Z,28.00
2022-12-11T11:30:28.496Z,25.90
2022-12-11T11:33:00.823Z,24.63
2022-12-11T11:35:29.848Z,25.10
2022-12-11T11:38:13.125Z,26.20
2022-12-11T11:40:50.062Z,29.90
2022-12-11T11:43:29.100Z,27.85
2022-12-11T11:46:01.891Z,28.08
2022-12-11T11:48:50.053Z,27.50
2022-12-11T11:51:37.591Z,27.30
2022-12-11T11:54:18.521Z,26.33
2022-12-11T11:56:46.294Z,22.77
2022-12-11T11:59:28.084Z,26.80
2022-12-11T12:01:56.785Z,25.55
2022-12-11T12:04:24.425Z,25.83
2022-12-11T12:07:09.035Z,30.57
2022-12-11T12:09:54.384Z,26.80
2022-12-11T12:13:01.333Z,30.73
2022-12-11T12:15:58.488Z,30.20
2022-12-11T12:18:27.612Z,26.63
2022-12-11T12:21:08.883Z,35.37
2022-12-11T12:23:50.231Z,30.95
2022-12-11T12:26:30.280Z,30.42
2022-12-11T12:29:21.386Z,34.25
2022-12-11T12:32:08.289Z,28.65
2022-12-11T12:35:03.726Z,25.40
2022-12-11T12:37:30.207Z,29.42
2022-12-11T12:40:08.709Z,27.65
2022-12-11T12:43:00.173Z,23.90
2022-12-11T12:45:33.165Z,25.77
2022-12-11T12:47:59.673Z,29.20
2022-12-11T12:50:40.351Z,27.48
2022-12-11T12:53:10.132Z,26.05
2022-12-11T12:55:37.071Z,26.80
2022-12-11T12:58:07.438Z,27.70
2022-12-11T13:00:40.668Z,31.97
2022-12-11T13:03:17.098Z,25.50
2022-12-11T13:05:54.816Z,31.38
2022-12-11T13:08:29.856Z,27.58
2022-12-11T13:11:06.010Z,25.98
2022-12-11T13:13:37.493Z,28.87
2022-12-11T13:16:16.173Z,27.45
2022-12-11T13:18:45.130Z,24.77
2022-12-11T13:21:27.068Z,27.05
2022-12-11T13:23:54.365Z,30.70
2022-12-11T13:26:32.016Z,25.07
2022-12-11T13:28:58.972Z,29.05
2022-12-11T13:31:35.604Z,27.90
2022-12-11T13:34:20.527Z,25.58
2022-12-11T13:36:50.532Z,24.30
2022-12-11T13:39:27.755Z,25.20
2022-12-11T13:42:00.027Z,25.05
2022-12-11T13:44:33.749Z,26.00
2022-12-11T13:47:03.030Z,23.95
2022-12-11T13:49:38.518Z,23.52
2022-12-11T13:52:06.055Z,24.50
2022-12-11T13:54:36.615Z,26.73
2022-12-11T13:57:17.015Z,25.48
2022-12-11T13:59:53.038Z,28.25
2022-12-11T14:02:25.710Z,25.33
2022-12-11T14:04:56.844Z,22.87
2022-12-11T14:07:46.829Z,24.98
2022-12-11T14:10:17.831Z,24.23
2022-12-11T14:13:08.155Z,26.80
2022-12-11T14:15:36.264Z,24.90
2022-12-11T14:18:05.461Z,21.40
2022-12-11T14:20:34.069Z,25.55
2022-12-11T14:23:18.185Z,23.05
2022-12-11T14:26:19.873Z,23.45
2022-12-11T14:28:46.535Z,22.08
2022-12-11T14:31:18.074Z,27.13
2022-12-11T14:33:49.568Z,32.90
2022-12-11T14:36:17.821Z,26.52
2022-12-11T14:38:48.093Z,24.65
2022-12-11T14:41:27.055Z,24.17
2022-12-11T14:43:59.440Z,22.47
2022-12-11T14:46:46.238Z,22.65
2022-12-11T14:49:26.919Z,22.50
2022-12-11T14:51:56.433Z,24.42
2022-12-11T14:54:31.799Z,20.48
2022-12-11T14:57:02.847Z,18.60
2022-12-11T15:02:27.692Z,24.75
2022-12-11T15:05:02.294Z,23.95
2022-12-11T15:07:29.049Z,19.77
2022-12-11T15:09:56.712Z,20.70
2022-12-11T15:12:24.051Z,19.17
2022-12-11T15:14:57.263Z,18.67
2022-12-11T15:17:26.047Z,32.38
2022-12-11T15:20:02.744Z,26.13
2022-12-11T15:22:32.181Z,20.13
2022-12-11T15:24:59.441Z,27.05
2022-12-11T15:27:37.685Z,21.10
2022-12-11T15:30:28.086Z,25.25
2022-12-11T15:33:04.799Z,23.88
2022-12-11T15:35:31.311Z,21.23
2022-12-11T15:37:59.483Z,19.55
2022-12-11T15:40:27.094Z,23.02
2022-12-11T15:42:54.991Z,22.08
2022-12-11T15:45:24.542Z,27.58
2022-12-11T15:47:52.166Z,24.10
2022-12-11T15:50:21.365Z,36.35
2022-12-11T15:52:48.785Z,28.98
2022-12-11T15:55:17.384Z,31.92
2022-12-11T15:57:55.661Z,36.13
2022-12-11T16:00:24.018Z,37.57
2022-12-11T16:02:51.603Z,47.55
2022-12-11T16:05:18.145Z,43.92
2022-12-11T16:07:44.754Z,45.70
2022-12-11T16:10:14.884Z,45.85
2022-12-11T16:12:42.031Z,68.10
2022-12-11T16:15:09.317Z,59.53
2022-12-11T16:17:36.130Z,58.28
2022-12-11T16:20:02.650Z,54.33
2022-12-11T16:22:29.148Z,53.42
2022-12-11T16:24:55.604Z,59.47
2022-12-11T16:27:23.336Z,59.97
2022-12-11T16:29:50.096Z,57.80
2022-12-11T16:32:16.986Z,50.10
2022-12-11T16:34:43.520Z,57.95
2022-12-11T16:37:10.008Z,59.23
2022-12-11T16:39:38.006Z,56.33
2022-12-11T16:42:05.765Z,54.42
2022-12-11T16:44:32.494Z,51.75
2022-12-11T16:46:58.951Z,53.80
2022-12-11T16:49:25.338Z,53.73
2022-12-11T16:51:51.679Z,48.75
2022-12-11T16:54:18.328Z,53.70
2022-12-11T16:56:45.089Z,49.97
2022-12-11T16:59:12.861Z,51.60
2022-12-11T17:01:39.965Z,45.53
2022-12-11T17:04:06.562Z,43.30
2022-12-11T17:06:33.020Z,45.42
2022-12-11T17:08:59.588Z,49.65
2022-12-11T17:11:26.217Z,47.75
2022-12-11T17:13:54.896Z,49.67
2022-12-11T17:16:22.287Z,53.45
2022-12-11T17:18:48.809Z,50.92
2022-12-11T17:21:17.584Z,50.22
2022-12-11T17:23:44.977Z,52.83
2022-12-11T17:26:11.944Z,50.53
2022-12-11T17:28:39.240Z,60.63
2022-12-11T17:31:07.330Z,56.88
2022-12-11T17:33:33.833Z,59.50
2022-12-11T17:36:05.658Z,99.00
2022-12-11T17:38:32.539Z,65.23
2022-12-11T17:40:59.143Z,94.05
2022-12-11T17:43:25.908Z,246.30
2022-12-11T17:45:52.546Z,84.72
2022-12-11T17:48:22.340Z,54.42
2022-12-11T17:50:50.959Z,52.43
2022-12-11T17:53:19.876Z,52.17
2022-12-11T17:55:47.550Z,51.58
2022-12-11T17:58:20.714Z,52.90
2022-12-11T18:00:49.921Z,55.75
2022-12-11T18:03:16.846Z,54.10
2022-12-11T18:05:45.593Z,48.28
2022-12-11T18:08:17.525Z,65.22
2022-12-11T18:10:45.304Z,57.58
2022-12-11T18:13:12.450Z,58.40
2022-12-11T18:15:39.587Z,56.60
2022-12-11T18:18:06.956Z,52.85
2022-12-11T18:20:34.358Z,51.95
2022-12-11T18:23:01.057Z,55.00
2022-12-11T18:25:28.112Z,50.58
2022-12-11T18:27:57.657Z,50.53
2022-12-11T18:30:25.715Z,47.30
2022-12-11T18:32:52.180Z,55.45
2022-12-11T18:35:19.334Z,50.60
2022-12-11T18:37:45.690Z,53.88
2022-12-11T18:40:12.343Z,48.87
2022-12-11T18:42:38.925Z,51.70
2022-12-11T18:45:06.998Z,57.40
2022-12-11T18:47:34.079Z,55.65
2022-12-11T18:50:07.218Z,52.45
2022-12-11T18:52:34.793Z,52.50
2022-12-11T18:55:01.482Z,54.97
2022-12-11T18:57:27.922Z,51.67
2022-12-11T18:59:54.527Z,49.67
2022-12-11T19:02:21.665Z,53.17
2022-12-11T19:04:48.218Z,49.87
2022-12-11T19:07:14.634Z,51.58
2022-12-11T19:09:46.197Z,47.55
2022-12-11T19:12:14.468Z,45.50
2022-12-11T19:14:41.038Z,54.58
2022-12-11T19:17:07.470Z,54.53
2022-12-11T19:19:34.065Z,49.00
2022-12-11T19:22:00.592Z,50.35
2022-12-11T19:24:27.286Z,56.05
2022-12-11T19:26:53.809Z,56.50
2022-12-11T19:29:27.044Z,55.00
2022-12-11T19:31:55.537Z,62.00
2022-12-11T19:34:22.835Z,59.90
2022-12-11T19:36:49.606Z,65.10
2022-12-11T19:39:16.503Z,67.30
2022-12-11T19:41:43.242Z,58.47
2022-12-11T19:44:09.704Z,68.10
2022-12-11T19:46:36.243Z,71.07
2022-12-11T19:49:02.929Z,63.00
2022-12-11T19:51:36.359Z,56.58
2022-12-11T19:54:03.180Z,50.10
2022-12-11T19:56:29.930Z,49.67
2022-12-11T19:58:56.583Z,53.75
2022-12-11T20:01:30.150Z,45.38
2022-12-11T20:03:59.744Z,51.20
2022-12-11T20:06:34.327Z,48.30
2022-12-11T20:09:01.739Z,83.80
2022-12-11T20:11:28.526Z,56.00
2022-12-11T20:13:56.018Z,51.55
2022-12-11T20:16:45.847Z,56.50
2022-12-11T20:19:09.556Z,53.43
2022-12-11T20:21:36.128Z,56.28
2022-12-11T20:24:03.513Z,63.15
2022-12-11T20:26:32.454Z,54.47
2022-12-11T20:28:59.119Z,52.83
2022-12-11T20:31:26.262Z,56.50
2022-12-11T20:33:53.606Z,56.90
2022-12-11T20:36:22.515Z,221.85
2022-12-11T20:38:49.863Z,102.50
2022-12-11T20:41:20.459Z,70.00
2022-12-11T20:43:48.990Z,56.73
2022-12-11T20:46:17.388Z,62.20
2022-12-11T20:48:44.892Z,62.83
2022-12-11T20:51:13.203Z,74.95
2022-12-11T20:53:40.436Z,59.90
2022-12-11T20:56:12.458Z,56.47
2022-12-11T20:58:39.914Z,55.90
2022-12-11T21:01:06.831Z,54.78
2022-12-11T21:03:38.927Z,66.22
2022-12-11T21:06:09.212Z,65.28
2022-12-11T21:08:35.614Z,51.97
2022-12-11T21:11:02.558Z,52.53
2022-12-11T21:13:29.030Z,54.92
2022-12-11T21:15:56.783Z,56.22
2022-12-11T21:18:23.400Z,63.83
2022-12-11T21:20:49.830Z,52.40
2022-12-11T21:23:16.306Z,59.17
2022-12-11T21:25:43.020Z,57.95
2022-12-11T21:28:09.407Z,58.95
2022-12-11T21:30:40.074Z,59.47
2022-12-11T21:33:06.596Z,64.80
2022-12-11T21:35:32.957Z,60.60
2022-12-11T21:37:59.405Z,58.50
2022-12-11T21:40:25.836Z,59.92
2022-12-11T21:42:52.321Z,60.50
2022-12-11T21:48:05.356Z,59.13
2022-12-11T21:50:31.967Z,57.83
2022-12-11T21:52:58.868Z,58.05
2022-12-11T21:55:25.567Z,59.20
2022-12-11T21:57:54.408Z,60.07
2022-12-11T22:00:22.016Z,60.65
2022-12-11T22:02:49.547Z,56.17
2022-12-11T22:05:16.104Z,55.38
2022-12-11T22:07:42.542Z,63.22
2022-12-11T22:10:09.523Z,56.17
2022-12-11T22:12:36.006Z,55.00
2022-12-11T22:15:02.599Z,54.63
2022-12-11T22:17:29.036Z,55.13
2022-12-11T22:19:55.395Z,60.05
2022-12-11T22:22:21.833Z,54.97
2022-12-11T22:24:48.327Z,52.45
2022-12-11T22:27:19.043Z,64.85
2022-12-11T22:29:48.545Z,67.75
2022-12-11T22:32:15.047Z,61.38
2022-12-11T22:34:41.509Z,60.07
2022-12-11T22:37:08.080Z,65.13
2022-12-11T22:39:34.515Z,63.72
2022-12-11T22:42:01.011Z,61.35
2022-12-11T22:44:27.506Z,58.20
2022-12-11T22:46:53.980Z,56.87
2022-12-11T22:49:20.521Z,54.67
2022-12-11T22:51:47.278Z,56.47
2022-12-11T22:54:13.643Z,53.38
2022-12-11T22:56:40.297Z,53.38
2022-12-11T22:59:07.553Z,55.27
2022-12-11T23:01:34.353Z,55.03
2022-12-11T23:04:00.743Z,54.15
2022-12-11T23:06:27.412Z,58.85
2022-12-11T23:08:58.221Z,60.40
2022-12-11T23:11:28.744Z,56.83
2022-12-11T23:13:56.027Z,56.38
2022-12-11T23:16:26.411Z,52.17
2022-12-11T23:18:54.220Z,53.95
2022-12-11T23:21:21.731Z,51.47
2022-12-11T23:23:48.669Z,65.27
2022-12-11T23:26:15.960Z,71.82
2022-12-11T23:28:42.561Z,55.28
2022-12-11T23:31:09.449Z,67.60
2022-12-11T23:33:36.452Z,68.35
2022-12-11T23:36:03.411Z,57.23
2022-12-11T23:38:30.440Z,78.93
2022-12-11T23:40:59.659Z,71.65
2022-12-11T23:43:26.342Z,56.05
2022-12-11T23:45:53.191Z,56.70
2022-12-11T23:48:19.754Z,48.40
2022-12-11T23:50:46.674Z,53.70
2022-12-11T23:53:13.178Z,55.22
2022-12-11T23:55:41.651Z,54.92
2022-12-11T23:58:08.152Z,52.60
